sensor_id;sensor_type;location;lat;lon;timestamp;P1;durP1;ratioP1;P2;durP2;ratioP2
20545;SDS011;10431;50.228;9.112;2023-08-07T00:00:43;3.25;;;1.40;;
20545;SDS011;10431;50.228;9.112;2023-08-07T00:03:09;8.35;;;1.80;;
20545;SDS011;10431;50.228;9.112;2023-08-07T00:05:37;6.72;;;1.50;;
20545;SDS011;10431;50.228;9.112;2023-08-07T00:08:03;6.40;;;2.05;;
20545;SDS011;10431;50.228;9.112;2023-08-07T00:10:30;4.90;;;1.55;;
20545;SDS011;10431;50.228;9.112;2023-08-07T00:12:56;3.38;;;1.67;;
20545;SDS011;10431;50.228;9.112;2023-08-07T00:15:22;5.40;;;1.33;;
20545;SDS011;10431;50.228;9.112;2023-08-07T00:17:48;4.38;;;2.05;;
20545;SDS011;10431;50.228;9.112;2023-08-07T00:20:14;4.93;;;1.70;;
20545;SDS011;10431;50.228;9.112;2023-08-07T00:22:40;5.10;;;1.40;;
20545;SDS011;10431;50.228;9.112;2023-08-07T00:25:07;3.08;;;1.42;;
20545;SDS011;10431;50.228;9.112;2023-08-07T00:27:33;4.45;;;2.03;;
20545;SDS011;10431;50.228;9.112;2023-08-07T00:30:00;2.15;;;1.30;;
20545;SDS011;10431;50.228;9.112;2023-08-07T00:32:26;3.42;;;1.38;;
20545;SDS011;10431;50.228;9.112;2023-08-07T00:34:52;3.75;;;1.30;;
20545;SDS011;10431;50.228;9.112;2023-08-07T00:37:18;2.90;;;1.77;;
20545;SDS011;10431;50.228;9.112;2023-08-07T00:39:44;3.58;;;1.92;;
20545;SDS011;10431;50.228;9.112;2023-08-07T00:42:11;2.97;;;1.42;;
20545;SDS011;10431;50.228;9.112;2023-08-07T00:44:37;2.55;;;1.30;;
20545;SDS011;10431;50.228;9.112;2023-08-07T00:47:05;2.35;;;1.50;;
20545;SDS011;10431;50.228;9.112;2023-08-07T00:49:32;3.55;;;1.60;;
20545;SDS011;10431;50.228;9.112;2023-08-07T00:51:59;5.15;;;2.13;;
20545;SDS011;10431;50.228;9.112;2023-08-07T00:54:25;2.50;;;1.40;;
20545;SDS011;10431;50.228;9.112;2023-08-07T00:56:52;5.80;;;1.60;;
20545;SDS011;10431;50.228;9.112;2023-08-07T00:59:18;2.40;;;1.25;;
20545;SDS011;10431;50.228;9.112;2023-08-07T01:01:45;4.20;;;1.58;;
20545;SDS011;10431;50.228;9.112;2023-08-07T01:04:11;2.22;;;1.45;;
20545;SDS011;10431;50.228;9.112;2023-08-07T01:06:37;3.47;;;1.60;;
20545;SDS011;10431;50.228;9.112;2023-08-07T01:09:03;2.83;;;1.65;;
20545;SDS011;10431;50.228;9.112;2023-08-07T01:11:34;3.17;;;1.25;;
20545;SDS011;10431;50.228;9.112;2023-08-07T01:14:28;3.78;;;1.40;;
20545;SDS011;10431;50.228;9.112;2023-08-07T01:17:11;5.57;;;1.60;;
20545;SDS011;10431;50.228;9.112;2023-08-07T01:19:41;4.53;;;1.25;;
20545;SDS011;10431;50.228;9.112;2023-08-07T01:24:38;2.67;;;1.20;;
20545;SDS011;10431;50.228;9.112;2023-08-07T01:29:48;2.63;;;1.50;;
20545;SDS011;10431;50.228;9.112;2023-08-07T01:35:20;2.60;;;1.33;;
20545;SDS011;10431;50.228;9.112;2023-08-07T01:37:51;3.80;;;1.27;;
20545;SDS011;10431;50.228;9.112;2023-08-07T01:40:21;2.15;;;1.20;;
20545;SDS011;10431;50.228;9.112;2023-08-07T01:42:48;4.15;;;1.23;;
20545;SDS011;10431;50.228;9.112;2023-08-07T01:45:21;2.50;;;1.10;;
20545;SDS011;10431;50.228;9.112;2023-08-07T01:47:51;3.28;;;1.10;;
20545;SDS011;10431;50.228;9.112;2023-08-07T01:50:19;4.57;;;1.30;;
20545;SDS011;10431;50.228;9.112;2023-08-07T01:52:46;4.53;;;1.33;;
20545;SDS011;10431;50.228;9.112;2023-08-07T01:55:13;4.22;;;1.15;;
20545;SDS011;10431;50.228;9.112;2023-08-07T01:57:40;2.63;;;1.45;;
20545;SDS011;10431;50.228;9.112;2023-08-07T02:00:06;3.20;;;1.40;;
20545;SDS011;10431;50.228;9.112;2023-08-07T02:02:40;4.32;;;1.50;;
20545;SDS011;10431;50.228;9.112;2023-08-07T02:05:07;3.72;;;1.40;;
20545;SDS011;10431;50.228;9.112;2023-08-07T02:07:33;2.20;;;1.27;;
20545;SDS011;10431;50.228;9.112;2023-08-07T02:10:02;7.45;;;1.40;;
20545;SDS011;10431;50.228;9.112;2023-08-07T02:12:28;5.47;;;1.40;;
20545;SDS011;10431;50.228;9.112;2023-08-07T02:14:58;2.70;;;1.33;;
20545;SDS011;10431;50.228;9.112;2023-08-07T02:17:25;3.55;;;1.30;;
20545;SDS011;10431;50.228;9.112;2023-08-07T02:19:56;2.13;;;1.33;;
20545;SDS011;10431;50.228;9.112;2023-08-07T02:22:23;3.45;;;1.20;;
20545;SDS011;10431;50.228;9.112;2023-08-07T02:24:49;3.78;;;1.20;;
20545;SDS011;10431;50.228;9.112;2023-08-07T02:27:16;2.85;;;1.50;;
20545;SDS011;10431;50.228;9.112;2023-08-07T02:29:42;4.00;;;1.35;;
20545;SDS011;10431;50.228;9.112;2023-08-07T02:32:09;3.33;;;1.20;;
20545;SDS011;10431;50.228;9.112;2023-08-07T02:34:35;3.47;;;1.20;;
20545;SDS011;10431;50.228;9.112;2023-08-07T02:37:01;2.28;;;1.45;;
20545;SDS011;10431;50.228;9.112;2023-08-07T02:39:28;3.40;;;1.45;;
20545;SDS011;10431;50.228;9.112;2023-08-07T02:41:54;3.05;;;1.48;;
20545;SDS011;10431;50.228;9.112;2023-08-07T02:44:20;2.13;;;1.30;;
20545;SDS011;10431;50.228;9.112;2023-08-07T02:46:46;2.50;;;1.20;;
20545;SDS011;10431;50.228;9.112;2023-08-07T02:49:13;4.75;;;1.45;;
20545;SDS011;10431;50.228;9.112;2023-08-07T02:51:39;2.67;;;1.10;;
20545;SDS011;10431;50.228;9.112;2023-08-07T02:54:05;2.10;;;1.25;;
20545;SDS011;10431;50.228;9.112;2023-08-07T02:56:31;2.90;;;1.20;;
20545;SDS011;10431;50.228;9.112;2023-08-07T02:58:58;2.55;;;1.00;;
20545;SDS011;10431;50.228;9.112;2023-08-07T03:01:25;1.98;;;1.17;;
20545;SDS011;10431;50.228;9.112;2023-08-07T03:03:53;1.70;;;1.27;;
20545;SDS011;10431;50.228;9.112;2023-08-07T03:06:19;3.67;;;1.17;;
20545;SDS011;10431;50.228;9.112;2023-08-07T03:08:45;1.35;;;1.00;;
20545;SDS011;10431;50.228;9.112;2023-08-07T03:11:11;1.52;;;1.05;;
20545;SDS011;10431;50.228;9.112;2023-08-07T03:13:38;2.92;;;1.27;;
20545;SDS011;10431;50.228;9.112;2023-08-07T03:16:05;2.30;;;1.08;;
20545;SDS011;10431;50.228;9.112;2023-08-07T03:18:32;2.92;;;1.27;;
20545;SDS011;10431;50.228;9.112;2023-08-07T03:20:58;2.72;;;1.23;;
20545;SDS011;10431;50.228;9.112;2023-08-07T03:23:25;3.45;;;1.10;;
20545;SDS011;10431;50.228;9.112;2023-08-07T03:26:04;1.75;;;1.00;;
20545;SDS011;10431;50.228;9.112;2023-08-07T03:28:32;2.35;;;1.33;;
20545;SDS011;10431;50.228;9.112;2023-08-07T03:30:58;3.50;;;1.20;;
20545;SDS011;10431;50.228;9.112;2023-08-07T03:33:25;3.38;;;1.27;;
20545;SDS011;10431;50.228;9.112;2023-08-07T03:35:53;1.55;;;1.20;;
20545;SDS011;10431;50.228;9.112;2023-08-07T03:38:20;4.63;;;1.17;;
20545;SDS011;10431;50.228;9.112;2023-08-07T03:40:48;3.83;;;1.25;;
20545;SDS011;10431;50.228;9.112;2023-08-07T03:43:14;4.22;;;1.40;;
20545;SDS011;10431;50.228;9.112;2023-08-07T03:45:40;2.40;;;1.17;;
20545;SDS011;10431;50.228;9.112;2023-08-07T03:48:07;1.65;;;0.93;;
20545;SDS011;10431;50.228;9.112;2023-08-07T03:50:34;2.45;;;1.00;;
20545;SDS011;10431;50.228;9.112;2023-08-07T03:53:03;3.22;;;1.08;;
20545;SDS011;10431;50.228;9.112;2023-08-07T03:55:34;2.95;;;1.10;;
20545;SDS011;10431;50.228;9.112;2023-08-07T03:58:00;2.50;;;1.17;;
20545;SDS011;10431;50.228;9.112;2023-08-07T04:00:27;2.55;;;1.25;;
20545;SDS011;10431;50.228;9.112;2023-08-07T04:02:53;3.05;;;1.10;;
20545;SDS011;10431;50.228;9.112;2023-08-07T04:05:20;3.45;;;1.20;;
20545;SDS011;10431;50.228;9.112;2023-08-07T04:07:46;4.03;;;1.13;;
20545;SDS011;10431;50.228;9.112;2023-08-07T04:10:12;2.47;;;1.20;;
20545;SDS011;10431;50.228;9.112;2023-08-07T04:12:38;2.28;;;1.00;;
20545;SDS011;10431;50.228;9.112;2023-08-07T04:15:05;1.70;;;1.00;;
20545;SDS011;10431;50.228;9.112;2023-08-07T04:17:32;2.47;;;1.00;;
20545;SDS011;10431;50.228;9.112;2023-08-07T04:19:58;1.25;;;0.90;;
20545;SDS011;10431;50.228;9.112;2023-08-07T04:22:24;3.15;;;1.10;;
20545;SDS011;10431;50.228;9.112;2023-08-07T04:24:50;1.80;;;0.95;;
20545;SDS011;10431;50.228;9.112;2023-08-07T04:27:17;4.53;;;1.13;;
20545;SDS011;10431;50.228;9.112;2023-08-07T04:29:43;3.65;;;1.00;;
20545;SDS011;10431;50.228;9.112;2023-08-07T04:32:09;1.35;;;1.00;;
20545;SDS011;10431;50.228;9.112;2023-08-07T04:34:35;4.30;;;1.08;;
20545;SDS011;10431;50.228;9.112;2023-08-07T04:37:02;2.72;;;1.10;;
20545;SDS011;10431;50.228;9.112;2023-08-07T04:39:28;2.40;;;1.15;;
20545;SDS011;10431;50.228;9.112;2023-08-07T04:41:54;2.72;;;1.02;;
20545;SDS011;10431;50.228;9.112;2023-08-07T04:44:20;1.67;;;0.98;;
20545;SDS011;10431;50.228;9.112;2023-08-07T04:46:47;2.35;;;1.23;;
20545;SDS011;10431;50.228;9.112;2023-08-07T04:49:13;1.75;;;1.00;;
20545;SDS011;10431;50.228;9.112;2023-08-07T04:51:39;3.25;;;1.00;;
20545;SDS011;10431;50.228;9.112;2023-08-07T04:54:05;4.45;;;1.30;;
20545;SDS011;10431;50.228;9.112;2023-08-07T04:56:31;5.28;;;1.58;;
20545;SDS011;10431;50.228;9.112;2023-08-07T04:58:58;3.45;;;1.20;;
20545;SDS011;10431;50.228;9.112;2023-08-07T05:01:24;3.60;;;0.95;;
20545;SDS011;10431;50.228;9.112;2023-08-07T05:03:50;2.00;;;1.02;;
20545;SDS011;10431;50.228;9.112;2023-08-07T05:06:16;2.85;;;1.10;;
20545;SDS011;10431;50.228;9.112;2023-08-07T05:08:42;3.60;;;1.10;;
20545;SDS011;10431;50.228;9.112;2023-08-07T05:11:09;3.63;;;1.45;;
20545;SDS011;10431;50.228;9.112;2023-08-07T05:13:35;2.22;;;1.10;;
20545;SDS011;10431;50.228;9.112;2023-08-07T05:16:01;2.53;;;1.17;;
20545;SDS011;10431;50.228;9.112;2023-08-07T05:18:28;1.63;;;1.00;;
20545;SDS011;10431;50.228;9.112;2023-08-07T05:20:54;2.03;;;1.10;;
20545;SDS011;10431;50.228;9.112;2023-08-07T05:23:20;2.03;;;1.08;;
20545;SDS011;10431;50.228;9.112;2023-08-07T05:25:46;1.85;;;0.90;;
20545;SDS011;10431;50.228;9.112;2023-08-07T05:28:13;2.17;;;1.00;;
20545;SDS011;10431;50.228;9.112;2023-08-07T05:30:39;1.42;;;1.10;;
20545;SDS011;10431;50.228;9.112;2023-08-07T05:33:05;1.77;;;0.85;;
20545;SDS011;10431;50.228;9.112;2023-08-07T05:35:32;3.28;;;1.10;;
20545;SDS011;10431;50.228;9.112;2023-08-07T05:37:58;4.40;;;1.30;;
20545;SDS011;10431;50.228;9.112;2023-08-07T05:40:24;4.03;;;1.23;;
20545;SDS011;10431;50.228;9.112;2023-08-07T05:42:50;3.70;;;1.13;;
20545;SDS011;10431;50.228;9.112;2023-08-07T05:45:16;3.30;;;1.10;;
20545;SDS011;10431;50.228;9.112;2023-08-07T05:47:43;3.33;;;1.02;;
20545;SDS011;10431;50.228;9.112;2023-08-07T05:50:09;2.28;;;1.10;;
20545;SDS011;10431;50.228;9.112;2023-08-07T05:52:35;1.25;;;1.00;;
20545;SDS011;10431;50.228;9.112;2023-08-07T05:55:02;2.28;;;1.15;;
20545;SDS011;10431;50.228;9.112;2023-08-07T05:57:29;2.15;;;1.30;;
20545;SDS011;10431;50.228;9.112;2023-08-07T05:59:55;1.70;;;0.85;;
20545;SDS011;10431;50.228;9.112;2023-08-07T06:02:21;1.38;;;0.70;;
20545;SDS011;10431;50.228;9.112;2023-08-07T06:04:48;3.20;;;1.20;;
20545;SDS011;10431;50.228;9.112;2023-08-07T06:07:14;3.55;;;1.05;;
20545;SDS011;10431;50.228;9.112;2023-08-07T06:09:40;2.20;;;1.20;;
20545;SDS011;10431;50.228;9.112;2023-08-07T06:12:06;1.67;;;1.20;;
20545;SDS011;10431;50.228;9.112;2023-08-07T06:14:33;3.60;;;1.40;;
20545;SDS011;10431;50.228;9.112;2023-08-07T06:16:59;4.22;;;1.08;;
20545;SDS011;10431;50.228;9.112;2023-08-07T06:19:27;3.58;;;1.13;;
20545;SDS011;10431;50.228;9.112;2023-08-07T06:21:54;4.28;;;1.20;;
20545;SDS011;10431;50.228;9.112;2023-08-07T06:24:20;2.17;;;1.60;;
20545;SDS011;10431;50.228;9.112;2023-08-07T06:26:46;6.20;;;1.63;;
20545;SDS011;10431;50.228;9.112;2023-08-07T06:29:12;4.38;;;1.80;;
20545;SDS011;10431;50.228;9.112;2023-08-07T06:31:39;3.15;;;1.50;;
20545;SDS011;10431;50.228;9.112;2023-08-07T06:34:05;5.80;;;1.65;;
20545;SDS011;10431;50.228;9.112;2023-08-07T06:36:31;4.20;;;1.70;;
20545;SDS011;10431;50.228;9.112;2023-08-07T06:38:58;2.97;;;1.42;;
20545;SDS011;10431;50.228;9.112;2023-08-07T06:41:24;3.70;;;1.40;;
20545;SDS011;10431;50.228;9.112;2023-08-07T06:43:50;2.60;;;1.50;;
20545;SDS011;10431;50.228;9.112;2023-08-07T06:46:17;4.20;;;1.65;;
20545;SDS011;10431;50.228;9.112;2023-08-07T06:48:44;1.95;;;1.42;;
20545;SDS011;10431;50.228;9.112;2023-08-07T06:51:10;4.60;;;1.85;;
20545;SDS011;10431;50.228;9.112;2023-08-07T06:53:36;3.50;;;1.70;;
20545;SDS011;10431;50.228;9.112;2023-08-07T06:56:02;4.57;;;1.50;;
20545;SDS011;10431;50.228;9.112;2023-08-07T06:58:29;3.63;;;1.40;;
20545;SDS011;10431;50.228;9.112;2023-08-07T07:00:55;4.68;;;1.80;;
20545;SDS011;10431;50.228;9.112;2023-08-07T07:03:21;3.20;;;1.70;;
20545;SDS011;10431;50.228;9.112;2023-08-07T07:05:48;2.47;;;1.60;;
20545;SDS011;10431;50.228;9.112;2023-08-07T07:08:15;3.25;;;1.38;;
20545;SDS011;10431;50.228;9.112;2023-08-07T07:10:41;3.15;;;1.65;;
20545;SDS011;10431;50.228;9.112;2023-08-07T07:13:08;6.45;;;1.45;;
20545;SDS011;10431;50.228;9.112;2023-08-07T07:15:35;2.60;;;1.30;;
20545;SDS011;10431;50.228;9.112;2023-08-07T07:18:01;3.72;;;1.50;;
20545;SDS011;10431;50.228;9.112;2023-08-07T07:20:28;3.55;;;1.70;;
20545;SDS011;10431;50.228;9.112;2023-08-07T07:22:54;2.63;;;1.35;;
20545;SDS011;10431;50.228;9.112;2023-08-07T07:25:20;4.97;;;1.60;;
20545;SDS011;10431;50.228;9.112;2023-08-07T07:27:47;4.43;;;1.67;;
20545;SDS011;10431;50.228;9.112;2023-08-07T07:30:13;2.65;;;1.63;;
20545;SDS011;10431;50.228;9.112;2023-08-07T07:32:39;2.03;;;1.30;;
20545;SDS011;10431;50.228;9.112;2023-08-07T07:35:05;7.40;;;1.40;;
20545;SDS011;10431;50.228;9.112;2023-08-07T07:37:33;4.45;;;1.52;;
20545;SDS011;10431;50.228;9.112;2023-08-07T07:39:59;6.82;;;1.60;;
20545;SDS011;10431;50.228;9.112;2023-08-07T07:42:26;7.68;;;1.55;;
20545;SDS011;10431;50.228;9.112;2023-08-07T07:44:52;5.50;;;1.60;;
20545;SDS011;10431;50.228;9.112;2023-08-07T07:47:18;3.17;;;1.73;;
20545;SDS011;10431;50.228;9.112;2023-08-07T07:49:45;5.38;;;1.85;;
20545;SDS011;10431;50.228;9.112;2023-08-07T07:52:15;3.03;;;1.60;;
20545;SDS011;10431;50.228;9.112;2023-08-07T07:54:41;6.00;;;1.70;;
20545;SDS011;10431;50.228;9.112;2023-08-07T07:57:07;4.18;;;1.48;;
20545;SDS011;10431;50.228;9.112;2023-08-07T07:59:33;3.40;;;1.50;;
20545;SDS011;10431;50.228;9.112;2023-08-07T08:02:00;1.60;;;1.30;;
20545;SDS011;10431;50.228;9.112;2023-08-07T08:04:26;7.90;;;1.63;;
20545;SDS011;10431;50.228;9.112;2023-08-07T08:06:53;5.18;;;1.52;;
20545;SDS011;10431;50.228;9.112;2023-08-07T08:09:19;2.80;;;1.20;;
20545;SDS011;10431;50.228;9.112;2023-08-07T08:11:45;3.67;;;1.45;;
20545;SDS011;10431;50.228;9.112;2023-08-07T08:14:12;5.32;;;1.63;;
20545;SDS011;10431;50.228;9.112;2023-08-07T08:16:38;4.22;;;1.80;;
20545;SDS011;10431;50.228;9.112;2023-08-07T08:19:04;6.53;;;1.70;;
20545;SDS011;10431;50.228;9.112;2023-08-07T08:21:30;10.82;;;1.98;;
20545;SDS011;10431;50.228;9.112;2023-08-07T08:23:56;3.88;;;1.40;;
20545;SDS011;10431;50.228;9.112;2023-08-07T08:26:23;3.20;;;1.67;;
20545;SDS011;10431;50.228;9.112;2023-08-07T08:28:49;9.15;;;1.70;;
20545;SDS011;10431;50.228;9.112;2023-08-07T08:31:15;4.28;;;1.63;;
20545;SDS011;10431;50.228;9.112;2023-08-07T08:33:41;6.15;;;1.60;;
20545;SDS011;10431;50.228;9.112;2023-08-07T08:36:07;3.63;;;1.80;;
20545;SDS011;10431;50.228;9.112;2023-08-07T08:38:34;2.13;;;1.67;;
20545;SDS011;10431;50.228;9.112;2023-08-07T08:41:01;6.20;;;1.92;;
20545;SDS011;10431;50.228;9.112;2023-08-07T08:43:30;3.30;;;1.58;;
20545;SDS011;10431;50.228;9.112;2023-08-07T08:46:00;17.35;;;1.90;;
20545;SDS011;10431;50.228;9.112;2023-08-07T08:48:29;2.28;;;1.77;;
20545;SDS011;10431;50.228;9.112;2023-08-07T08:50:59;4.50;;;1.90;;
20545;SDS011;10431;50.228;9.112;2023-08-07T08:53:27;4.25;;;1.80;;
20545;SDS011;10431;50.228;9.112;2023-08-07T08:55:53;9.10;;;1.90;;
20545;SDS011;10431;50.228;9.112;2023-08-07T08:58:20;5.55;;;1.58;;
20545;SDS011;10431;50.228;9.112;2023-08-07T09:00:47;7.35;;;1.52;;
20545;SDS011;10431;50.228;9.112;2023-08-07T09:03:14;7.68;;;1.75;;
20545;SDS011;10431;50.228;9.112;2023-08-07T09:05:40;15.27;;;1.92;;
20545;SDS011;10431;50.228;9.112;2023-08-07T09:08:07;4.93;;;2.00;;
20545;SDS011;10431;50.228;9.112;2023-08-07T09:10:35;11.05;;;1.80;;
20545;SDS011;10431;50.228;9.112;2023-08-07T09:13:03;7.63;;;1.85;;
20545;SDS011;10431;50.228;9.112;2023-08-07T09:15:33;5.85;;;2.22;;
20545;SDS011;10431;50.228;9.112;2023-08-07T09:18:04;4.60;;;1.98;;
20545;SDS011;10431;50.228;9.112;2023-08-07T09:20:36;5.85;;;1.50;;
20545;SDS011;10431;50.228;9.112;2023-08-07T09:23:06;7.88;;;1.90;;
20545;SDS011;10431;50.228;9.112;2023-08-07T09:25:33;8.30;;;1.75;;
20545;SDS011;10431;50.228;9.112;2023-08-07T09:28:03;5.82;;;1.70;;
20545;SDS011;10431;50.228;9.112;2023-08-07T09:30:34;5.25;;;1.70;;
20545;SDS011;10431;50.228;9.112;2023-08-07T09:33:01;11.23;;;1.83;;
20545;SDS011;10431;50.228;9.112;2023-08-07T09:35:28;11.10;;;2.13;;
20545;SDS011;10431;50.228;9.112;2023-08-07T09:37:59;4.85;;;1.65;;
20545;SDS011;10431;50.228;9.112;2023-08-07T09:40:26;6.53;;;2.13;;
20545;SDS011;10431;50.228;9.112;2023-08-07T09:42:53;5.60;;;1.83;;
20545;SDS011;10431;50.228;9.112;2023-08-07T09:45:23;8.70;;;1.65;;
20545;SDS011;10431;50.228;9.112;2023-08-07T09:48:00;13.55;;;2.35;;
20545;SDS011;10431;50.228;9.112;2023-08-07T09:50:31;7.47;;;2.08;;
20545;SDS011;10431;50.228;9.112;2023-08-07T09:52:58;3.28;;;1.83;;
20545;SDS011;10431;50.228;9.112;2023-08-07T09:55:25;5.22;;;2.08;;
20545;SDS011;10431;50.228;9.112;2023-08-07T09:57:52;7.95;;;2.17;;
20545;SDS011;10431;50.228;9.112;2023-08-07T10:00:19;3.38;;;1.65;;
20545;SDS011;10431;50.228;9.112;2023-08-07T10:02:49;7.47;;;1.80;;
20545;SDS011;10431;50.228;9.112;2023-08-07T10:05:17;6.78;;;2.22;;
20545;SDS011;10431;50.228;9.112;2023-08-07T10:07:43;11.55;;;2.25;;
20545;SDS011;10431;50.228;9.112;2023-08-07T10:10:10;6.50;;;2.42;;
20545;SDS011;10431;50.228;9.112;2023-08-07T10:12:37;6.47;;;2.15;;
20545;SDS011;10431;50.228;9.112;2023-08-07T10:15:04;3.72;;;1.75;;
20545;SDS011;10431;50.228;9.112;2023-08-07T10:17:30;4.15;;;1.90;;
20545;SDS011;10431;50.228;9.112;2023-08-07T10:19:57;4.75;;;1.92;;
20545;SDS011;10431;50.228;9.112;2023-08-07T10:22:24;11.63;;;2.15;;
20545;SDS011;10431;50.228;9.112;2023-08-07T10:24:53;8.30;;;2.33;;
20545;SDS011;10431;50.228;9.112;2023-08-07T10:27:21;6.13;;;2.20;;
20545;SDS011;10431;50.228;9.112;2023-08-07T10:29:49;5.50;;;2.08;;
20545;SDS011;10431;50.228;9.112;2023-08-07T10:32:18;6.25;;;2.70;;
20545;SDS011;10431;50.228;9.112;2023-08-07T10:34:52;9.70;;;2.58;;
20545;SDS011;10431;50.228;9.112;2023-08-07T10:40:07;7.13;;;2.22;;
20545;SDS011;10431;50.228;9.112;2023-08-07T10:42:56;10.18;;;2.70;;
20545;SDS011;10431;50.228;9.112;2023-08-07T10:45:34;6.97;;;2.58;;
20545;SDS011;10431;50.228;9.112;2023-08-07T10:50:51;10.85;;;2.22;;
20545;SDS011;10431;50.228;9.112;2023-08-07T10:55:55;14.77;;;2.67;;
20545;SDS011;10431;50.228;9.112;2023-08-07T10:58:29;8.88;;;2.35;;
20545;SDS011;10431;50.228;9.112;2023-08-07T11:03:45;17.23;;;2.72;;
20545;SDS011;10431;50.228;9.112;2023-08-07T11:06:22;30.95;;;3.30;;
20545;SDS011;10431;50.228;9.112;2023-08-07T11:08:52;17.48;;;3.42;;
20545;SDS011;10431;50.228;9.112;2023-08-07T11:11:18;10.10;;;2.15;;
20545;SDS011;10431;50.228;9.112;2023-08-07T11:13:44;19.60;;;2.30;;
20545;SDS011;10431;50.228;9.112;2023-08-07T11:16:11;7.07;;;2.00;;
20545;SDS011;10431;50.228;9.112;2023-08-07T11:18:38;7.45;;;2.40;;
20545;SDS011;10431;50.228;9.112;2023-08-07T11:21:08;8.70;;;2.33;;
20545;SDS011;10431;50.228;9.112;2023-08-07T11:23:38;14.77;;;3.05;;
20545;SDS011;10431;50.228;9.112;2023-08-07T11:26:05;13.20;;;2.38;;
20545;SDS011;10431;50.228;9.112;2023-08-07T11:28:32;15.15;;;2.78;;
20545;SDS011;10431;50.228;9.112;2023-08-07T11:30:58;10.68;;;2.40;;
20545;SDS011;10431;50.228;9.112;2023-08-07T11:33:26;11.00;;;2.67;;
20545;SDS011;10431;50.228;9.112;2023-08-07T11:35:54;20.33;;;2.28;;
20545;SDS011;10431;50.228;9.112;2023-08-07T11:38:33;19.98;;;2.50;;
20545;SDS011;10431;50.228;9.112;2023-08-07T11:41:13;10.63;;;2.42;;
20545;SDS011;10431;50.228;9.112;2023-08-07T11:43:41;7.00;;;2.05;;
20545;SDS011;10431;50.228;9.112;2023-08-07T11:46:08;11.57;;;2.08;;
20545;SDS011;10431;50.228;9.112;2023-08-07T11:48:37;9.25;;;2.22;;
20545;SDS011;10431;50.228;9.112;2023-08-07T11:51:04;11.93;;;2.63;;
20545;SDS011;10431;50.228;9.112;2023-08-07T11:53:32;10.23;;;2.50;;
20545;SDS011;10431;50.228;9.112;2023-08-07T11:56:02;12.57;;;2.20;;
20545;SDS011;10431;50.228;9.112;2023-08-07T11:58:37;13.88;;;2.60;;
20545;SDS011;10431;50.228;9.112;2023-08-07T12:01:15;12.25;;;2.95;;
20545;SDS011;10431;50.228;9.112;2023-08-07T12:03:49;13.93;;;2.40;;
20545;SDS011;10431;50.228;9.112;2023-08-07T12:06:15;9.75;;;1.83;;
20545;SDS011;10431;50.228;9.112;2023-08-07T12:08:42;6.82;;;1.88;;
20545;SDS011;10431;50.228;9.112;2023-08-07T12:11:09;11.48;;;2.30;;
20545;SDS011;10431;50.228;9.112;2023-08-07T12:13:41;7.72;;;1.85;;
20545;SDS011;10431;50.228;9.112;2023-08-07T12:16:08;9.27;;;1.98;;
20545;SDS011;10431;50.228;9.112;2023-08-07T12:18:35;13.35;;;2.42;;
20545;SDS011;10431;50.228;9.112;2023-08-07T12:21:04;12.65;;;2.47;;
20545;SDS011;10431;50.228;9.112;2023-08-07T12:23:33;9.55;;;2.30;;
20545;SDS011;10431;50.228;9.112;2023-08-07T12:26:00;16.52;;;2.90;;
20545;SDS011;10431;50.228;9.112;2023-08-07T12:28:27;19.63;;;2.47;;
20545;SDS011;10431;50.228;9.112;2023-08-07T12:30:53;8.85;;;2.35;;
20545;SDS011;10431;50.228;9.112;2023-08-07T12:33:19;14.20;;;2.05;;
20545;SDS011;10431;50.228;9.112;2023-08-07T12:35:46;8.85;;;1.90;;
20545;SDS011;10431;50.228;9.112;2023-08-07T12:38:12;10.57;;;2.13;;
20545;SDS011;10431;50.228;9.112;2023-08-07T12:40:40;13.65;;;2.63;;
20545;SDS011;10431;50.228;9.112;2023-08-07T12:43:06;17.13;;;2.47;;
20545;SDS011;10431;50.228;9.112;2023-08-07T12:45:33;11.50;;;2.65;;
20545;SDS011;10431;50.228;9.112;2023-08-07T12:47:59;10.10;;;2.10;;
20545;SDS011;10431;50.228;9.112;2023-08-07T12:50:26;11.68;;;2.05;;
20545;SDS011;10431;50.228;9.112;2023-08-07T12:52:53;9.65;;;2.33;;
20545;SDS011;10431;50.228;9.112;2023-08-07T12:55:19;8.07;;;2.38;;
20545;SDS011;10431;50.228;9.112;2023-08-07T12:57:46;11.70;;;2.33;;
20545;SDS011;10431;50.228;9.112;2023-08-07T13:00:12;10.93;;;1.88;;
20545;SDS011;10431;50.228;9.112;2023-08-07T13:02:42;6.75;;;2.30;;
20545;SDS011;10431;50.228;9.112;2023-08-07T13:05:13;10.15;;;2.20;;
20545;SDS011;10431;50.228;9.112;2023-08-07T13:07:40;6.70;;;1.90;;
20545;SDS011;10431;50.228;9.112;2023-08-07T13:10:07;7.47;;;2.03;;
20545;SDS011;10431;50.228;9.112;2023-08-07T13:12:35;6.13;;;1.92;;
20545;SDS011;10431;50.228;9.112;2023-08-07T13:15:03;13.98;;;2.40;;
20545;SDS011;10431;50.228;9.112;2023-08-07T13:17:33;11.32;;;2.40;;
20545;SDS011;10431;50.228;9.112;2023-08-07T13:20:01;15.57;;;2.17;;
20545;SDS011;10431;50.228;9.112;2023-08-07T13:22:29;11.18;;;2.13;;
20545;SDS011;10431;50.228;9.112;2023-08-07T13:24:56;5.25;;;1.92;;
20545;SDS011;10431;50.228;9.112;2023-08-07T13:27:22;9.70;;;2.22;;
20545;SDS011;10431;50.228;9.112;2023-08-07T13:29:48;8.60;;;2.08;;
20545;SDS011;10431;50.228;9.112;2023-08-07T13:32:14;11.23;;;2.17;;
20545;SDS011;10431;50.228;9.112;2023-08-07T13:34:43;10.32;;;2.22;;
20545;SDS011;10431;50.228;9.112;2023-08-07T13:37:11;10.30;;;1.80;;
20545;SDS011;10431;50.228;9.112;2023-08-07T13:39:37;6.53;;;1.88;;
20545;SDS011;10431;50.228;9.112;2023-08-07T13:42:03;14.00;;;2.13;;
20545;SDS011;10431;50.228;9.112;2023-08-07T13:44:30;7.53;;;2.28;;
20545;SDS011;10431;50.228;9.112;2023-08-07T13:46:56;8.02;;;1.90;;
20545;SDS011;10431;50.228;9.112;2023-08-07T13:49:22;5.35;;;1.90;;
20545;SDS011;10431;50.228;9.112;2023-08-07T13:51:49;5.90;;;2.25;;
20545;SDS011;10431;50.228;9.112;2023-08-07T13:54:15;7.05;;;1.92;;
20545;SDS011;10431;50.228;9.112;2023-08-07T13:56:42;6.32;;;1.73;;
20545;SDS011;10431;50.228;9.112;2023-08-07T13:59:08;9.70;;;2.67;;
20545;SDS011;10431;50.228;9.112;2023-08-07T14:01:35;7.47;;;1.80;;
20545;SDS011;10431;50.228;9.112;2023-08-07T14:04:02;5.53;;;2.00;;
20545;SDS011;10431;50.228;9.112;2023-08-07T14:06:28;6.03;;;2.33;;
20545;SDS011;10431;50.228;9.112;2023-08-07T14:08:54;10.35;;;1.85;;
20545;SDS011;10431;50.228;9.112;2023-08-07T14:11:21;6.18;;;2.08;;
20545;SDS011;10431;50.228;9.112;2023-08-07T14:13:50;4.65;;;1.80;;
20545;SDS011;10431;50.228;9.112;2023-08-07T14:16:16;9.63;;;2.17;;
20545;SDS011;10431;50.228;9.112;2023-08-07T14:18:42;9.05;;;2.15;;
20545;SDS011;10431;50.228;9.112;2023-08-07T14:21:08;6.07;;;2.00;;
20545;SDS011;10431;50.228;9.112;2023-08-07T14:23:34;10.35;;;1.80;;
20545;SDS011;10431;50.228;9.112;2023-08-07T14:26:01;8.27;;;1.80;;
20545;SDS011;10431;50.228;9.112;2023-08-07T14:28:27;5.32;;;1.85;;
20545;SDS011;10431;50.228;9.112;2023-08-07T14:30:56;6.07;;;2.00;;
20545;SDS011;10431;50.228;9.112;2023-08-07T14:33:25;5.13;;;1.92;;
20545;SDS011;10431;50.228;9.112;2023-08-07T14:35:52;4.43;;;1.73;;
20545;SDS011;10431;50.228;9.112;2023-08-07T14:38:18;6.50;;;2.03;;
20545;SDS011;10431;50.228;9.112;2023-08-07T14:40:45;10.93;;;2.20;;
20545;SDS011;10431;50.228;9.112;2023-08-07T14:43:11;6.22;;;2.25;;
20545;SDS011;10431;50.228;9.112;2023-08-07T14:45:38;6.75;;;2.60;;
20545;SDS011;10431;50.228;9.112;2023-08-07T14:48:04;6.53;;;2.33;;
20545;SDS011;10431;50.228;9.112;2023-08-07T14:50:32;8.93;;;2.22;;
20545;SDS011;10431;50.228;9.112;2023-08-07T14:52:58;6.95;;;2.45;;
20545;SDS011;10431;50.228;9.112;2023-08-07T14:55:24;4.60;;;2.05;;
20545;SDS011;10431;50.228;9.112;2023-08-07T14:57:51;8.98;;;2.10;;
20545;SDS011;10431;50.228;9.112;2023-08-07T15:00:17;8.63;;;2.25;;
20545;SDS011;10431;50.228;9.112;2023-08-07T15:02:45;7.25;;;2.10;;
20545;SDS011;10431;50.228;9.112;2023-08-07T15:05:13;7.07;;;1.98;;